METAR Data
IDs: Format: Raw Decoded Include TAF

Data at: 0911 UTC 23 Jan 2019

MROC 230900Z 10017G27KT CAVOK 20/13 A2995 NOSIG